sensor_id;sensor_type;location;lat;lon;timestamp;temperature;humidity
3876;DHT22;1953;51.222;6.624;2023-09-30T00:03:05;15.20;1.00
3876;DHT22;1953;51.222;6.624;2023-09-30T00:07:47;15.30;1.00
3876;DHT22;1953;51.222;6.624;2023-09-30T00:12:30;15.30;1.00
3876;DHT22;1953;51.222;6.624;2023-09-30T00:18:39;15.20;1.00
3876;DHT22;1953;51.222;6.624;2023-09-30T00:23:22;15.00;1.00
3876;DHT22;1953;51.222;6.624;2023-09-30T00:28:05;15.00;1.00
3876;DHT22;1953;51.222;6.624;2023-09-30T00:32:47;14.90;1.00
3876;DHT22;1953;51.222;6.624;2023-09-30T00:37:32;14.90;1.00
3876;DHT22;1953;51.222;6.624;2023-09-30T00:42:14;14.90;1.00
3876;DHT22;1953;51.222;6.624;2023-09-30T00:46:57;14.90;1.00
3876;DHT22;1953;51.222;6.624;2023-09-30T00:51:40;15.00;1.00
3876;DHT22;1953;51.222;6.624;2023-09-30T00:56:27;15.00;1.00
3876;DHT22;1953;51.222;6.624;2023-09-30T01:01:10;15.00;1.00
3876;DHT22;1953;51.222;6.624;2023-09-30T01:05:53;15.00;1.00
3876;DHT22;1953;51.222;6.624;2023-09-30T01:10:36;15.00;1.00
3876;DHT22;1953;51.222;6.624;2023-09-30T01:15:20;15.00;1.00
3876;DHT22;1953;51.222;6.624;2023-09-30T01:20:03;15.00;1.00
3876;DHT22;1953;51.222;6.624;2023-09-30T01:24:49;15.00;1.00
3876;DHT22;1953;51.222;6.624;2023-09-30T01:29:31;14.90;1.00
3876;DHT22;1953;51.222;6.624;2023-09-30T01:34:14;14.90;1.00
3876;DHT22;1953;51.222;6.624;2023-09-30T01:38:57;14.90;1.00
3876;DHT22;1953;51.222;6.624;2023-09-30T01:43:41;14.90;1.00
3876;DHT22;1953;51.222;6.624;2023-09-30T01:48:24;14.90;1.00
3876;DHT22;1953;51.222;6.624;2023-09-30T01:53:07;14.90;1.00
3876;DHT22;1953;51.222;6.624;2023-09-30T01:57:50;14.90;1.00
3876;DHT22;1953;51.222;6.624;2023-09-30T02:02:34;14.80;1.00
3876;DHT22;1953;51.222;6.624;2023-09-30T02:07:17;14.80;1.00
3876;DHT22;1953;51.222;6.624;2023-09-30T02:12:00;14.70;1.00
3876;DHT22;1953;51.222;6.624;2023-09-30T02:16:42;14.70;1.00
3876;DHT22;1953;51.222;6.624;2023-09-30T02:21:26;14.60;1.00
3876;DHT22;1953;51.222;6.624;2023-09-30T02:26:09;14.60;1.00
3876;DHT22;1953;51.222;6.624;2023-09-30T02:30:52;14.60;1.00
3876;DHT22;1953;51.222;6.624;2023-09-30T02:35:34;14.70;1.00
3876;DHT22;1953;51.222;6.624;2023-09-30T02:40:21;14.60;1.00
3876;DHT22;1953;51.222;6.624;2023-09-30T02:45:06;14.50;1.00
3876;DHT22;1953;51.222;6.624;2023-09-30T02:49:50;14.40;1.00
3876;DHT22;1953;51.222;6.624;2023-09-30T02:54:32;14.40;1.00
3876;DHT22;1953;51.222;6.624;2023-09-30T02:59:16;14.30;1.00
3876;DHT22;1953;51.222;6.624;2023-09-30T03:04:00;14.30;1.00
3876;DHT22;1953;51.222;6.624;2023-09-30T03:08:42;14.20;1.00
3876;DHT22;1953;51.222;6.624;2023-09-30T03:13:25;14.10;1.00
3876;DHT22;1953;51.222;6.624;2023-09-30T03:18:09;14.00;1.00
3876;DHT22;1953;51.222;6.624;2023-09-30T03:22:53;14.00;1.00
3876;DHT22;1953;51.222;6.624;2023-09-30T03:27:35;14.00;1.00
3876;DHT22;1953;51.222;6.624;2023-09-30T03:32:18;14.00;1.00
3876;DHT22;1953;51.222;6.624;2023-09-30T03:37:02;14.00;1.00
3876;DHT22;1953;51.222;6.624;2023-09-30T03:41:47;14.00;1.00
3876;DHT22;1953;51.222;6.624;2023-09-30T03:46:30;14.00;1.00
3876;DHT22;1953;51.222;6.624;2023-09-30T03:51:13;14.00;1.00
3876;DHT22;1953;51.222;6.624;2023-09-30T03:55:57;13.90;1.00
3876;DHT22;1953;51.222;6.624;2023-09-30T04:00:39;13.90;1.00
3876;DHT22;1953;51.222;6.624;2023-09-30T04:05:22;13.80;1.00
3876;DHT22;1953;51.222;6.624;2023-09-30T04:10:10;13.80;1.00
3876;DHT22;1953;51.222;6.624;2023-09-30T04:14:54;13.80;1.00
3876;DHT22;1953;51.222;6.624;2023-09-30T04:19:36;13.80;1.00
3876;DHT22;1953;51.222;6.624;2023-09-30T04:24:19;13.70;1.00
3876;DHT22;1953;51.222;6.624;2023-09-30T04:29:02;13.70;1.00
3876;DHT22;1953;51.222;6.624;2023-09-30T04:33:53;13.70;1.00
3876;DHT22;1953;51.222;6.624;2023-09-30T04:38:35;13.70;1.00
3876;DHT22;1953;51.222;6.624;2023-09-30T04:43:18;13.70;1.00
3876;DHT22;1953;51.222;6.624;2023-09-30T04:48:02;13.60;1.00
3876;DHT22;1953;51.222;6.624;2023-09-30T04:52:46;13.60;1.00
3876;DHT22;1953;51.222;6.624;2023-09-30T04:57:29;13.50;1.00
3876;DHT22;1953;51.222;6.624;2023-09-30T05:02:13;13.50;1.00
3876;DHT22;1953;51.222;6.624;2023-09-30T05:06:56;13.40;1.00
3876;DHT22;1953;51.222;6.624;2023-09-30T05:11:40;13.50;1.00
3876;DHT22;1953;51.222;6.624;2023-09-30T05:16:22;13.50;1.00
3876;DHT22;1953;51.222;6.624;2023-09-30T05:21:07;13.50;1.00
3876;DHT22;1953;51.222;6.624;2023-09-30T05:25:50;13.50;1.00
3876;DHT22;1953;51.222;6.624;2023-09-30T05:30:35;13.40;1.00
3876;DHT22;1953;51.222;6.624;2023-09-30T05:35:18;13.30;1.00
3876;DHT22;1953;51.222;6.624;2023-09-30T05:40:04;13.40;1.00
3876;DHT22;1953;51.222;6.624;2023-09-30T05:44:57;13.30;1.00
3876;DHT22;1953;51.222;6.624;2023-09-30T05:49:42;13.30;1.00
3876;DHT22;1953;51.222;6.624;2023-09-30T05:54:24;13.30;1.00
3876;DHT22;1953;51.222;6.624;2023-09-30T05:59:07;13.40;1.00
3876;DHT22;1953;51.222;6.624;2023-09-30T06:03:50;13.40;1.00
3876;DHT22;1953;51.222;6.624;2023-09-30T06:08:33;13.40;1.00
3876;DHT22;1953;51.222;6.624;2023-09-30T06:13:16;13.40;1.00
3876;DHT22;1953;51.222;6.624;2023-09-30T06:17:58;13.30;1.00
3876;DHT22;1953;51.222;6.624;2023-09-30T06:22:41;13.40;1.00
3876;DHT22;1953;51.222;6.624;2023-09-30T06:27:25;13.50;1.00
3876;DHT22;1953;51.222;6.624;2023-09-30T06:32:07;13.50;1.00
3876;DHT22;1953;51.222;6.624;2023-09-30T06:36:50;13.50;1.00
3876;DHT22;1953;51.222;6.624;2023-09-30T06:41:34;13.60;1.00
3876;DHT22;1953;51.222;6.624;2023-09-30T06:46:18;13.60;1.00
3876;DHT22;1953;51.222;6.624;2023-09-30T06:51:00;13.70;1.00
3876;DHT22;1953;51.222;6.624;2023-09-30T06:55:44;13.70;1.00
3876;DHT22;1953;51.222;6.624;2023-09-30T07:00:26;13.80;1.00
3876;DHT22;1953;51.222;6.624;2023-09-30T07:05:12;13.90;1.00
3876;DHT22;1953;51.222;6.624;2023-09-30T07:09:55;14.00;1.00
3876;DHT22;1953;51.222;6.624;2023-09-30T07:14:37;14.00;1.00
3876;DHT22;1953;51.222;6.624;2023-09-30T07:19:19;14.10;1.00
3876;DHT22;1953;51.222;6.624;2023-09-30T07:24:04;14.20;1.00
3876;DHT22;1953;51.222;6.624;2023-09-30T07:28:47;14.20;1.00
3876;DHT22;1953;51.222;6.624;2023-09-30T07:33:29;14.40;1.00
3876;DHT22;1953;51.222;6.624;2023-09-30T07:38:12;14.50;1.00
3876;DHT22;1953;51.222;6.624;2023-09-30T07:42:56;14.60;1.00
3876;DHT22;1953;51.222;6.624;2023-09-30T07:47:39;14.70;1.00
3876;DHT22;1953;51.222;6.624;2023-09-30T07:52:21;14.80;1.00
3876;DHT22;1953;51.222;6.624;2023-09-30T07:57:04;15.00;1.00
3876;DHT22;1953;51.222;6.624;2023-09-30T08:01:48;15.10;1.00
3876;DHT22;1953;51.222;6.624;2023-09-30T08:06:31;15.30;1.00
3876;DHT22;1953;51.222;6.624;2023-09-30T08:11:14;15.30;1.00
3876;DHT22;1953;51.222;6.624;2023-09-30T08:15:56;15.50;1.00
3876;DHT22;1953;51.222;6.624;2023-09-30T08:20:40;15.60;1.00
3876;DHT22;1953;51.222;6.624;2023-09-30T08:25:23;15.80;1.00
3876;DHT22;1953;51.222;6.624;2023-09-30T08:30:07;15.90;1.00
3876;DHT22;1953;51.222;6.624;2023-09-30T08:34:49;16.00;1.00
3876;DHT22;1953;51.222;6.624;2023-09-30T08:39:37;16.20;1.00
3876;DHT22;1953;51.222;6.624;2023-09-30T08:44:20;16.30;1.00
3876;DHT22;1953;51.222;6.624;2023-09-30T08:49:04;16.40;1.00
3876;DHT22;1953;51.222;6.624;2023-09-30T08:53:47;16.50;1.00
3876;DHT22;1953;51.222;6.624;2023-09-30T08:58:32;16.60;1.00
3876;DHT22;1953;51.222;6.624;2023-09-30T09:03:15;16.80;1.00
3876;DHT22;1953;51.222;6.624;2023-09-30T09:07:58;16.90;1.00
3876;DHT22;1953;51.222;6.624;2023-09-30T09:12:41;17.10;1.00
3876;DHT22;1953;51.222;6.624;2023-09-30T09:17:40;17.30;1.00
3876;DHT22;1953;51.222;6.624;2023-09-30T09:22:23;17.50;1.00
3876;DHT22;1953;51.222;6.624;2023-09-30T09:27:07;17.50;1.00
3876;DHT22;1953;51.222;6.624;2023-09-30T09:31:50;17.60;1.00
3876;DHT22;1953;51.222;6.624;2023-09-30T09:36:40;17.90;1.00
3876;DHT22;1953;51.222;6.624;2023-09-30T09:41:23;18.00;1.00
3876;DHT22;1953;51.222;6.624;2023-09-30T09:46:07;18.20;1.00
3876;DHT22;1953;51.222;6.624;2023-09-30T09:50:50;18.30;1.00
3876;DHT22;1953;51.222;6.624;2023-09-30T09:55:36;18.50;1.00
3876;DHT22;1953;51.222;6.624;2023-09-30T10:00:22;18.60;1.00
3876;DHT22;1953;51.222;6.624;2023-09-30T10:05:05;18.70;1.00
3876;DHT22;1953;51.222;6.624;2023-09-30T10:09:51;18.90;1.00
3876;DHT22;1953;51.222;6.624;2023-09-30T10:14:35;19.20;1.00
3876;DHT22;1953;51.222;6.624;2023-09-30T10:19:20;19.40;1.00
3876;DHT22;1953;51.222;6.624;2023-09-30T10:24:27;19.40;1.00
3876;DHT22;1953;51.222;6.624;2023-09-30T10:29:10;19.60;1.00
3876;DHT22;1953;51.222;6.624;2023-09-30T10:34:22;19.80;1.00
3876;DHT22;1953;51.222;6.624;2023-09-30T10:39:07;19.90;1.00
3876;DHT22;1953;51.222;6.624;2023-09-30T10:43:54;20.00;1.00
3876;DHT22;1953;51.222;6.624;2023-09-30T10:48:37;20.10;1.00
3876;DHT22;1953;51.222;6.624;2023-09-30T10:53:23;20.30;1.00
3876;DHT22;1953;51.222;6.624;2023-09-30T10:58:05;20.30;1.00
3876;DHT22;1953;51.222;6.624;2023-09-30T11:02:49;20.40;1.00
3876;DHT22;1953;51.222;6.624;2023-09-30T11:07:32;20.60;1.00
3876;DHT22;1953;51.222;6.624;2023-09-30T11:12:16;20.70;1.00
3876;DHT22;1953;51.222;6.624;2023-09-30T11:16:59;20.70;1.00
3876;DHT22;1953;51.222;6.624;2023-09-30T11:21:43;20.70;1.00
3876;DHT22;1953;51.222;6.624;2023-09-30T11:26:29;20.70;1.00
3876;DHT22;1953;51.222;6.624;2023-09-30T11:31:15;20.50;1.00
3876;DHT22;1953;51.222;6.624;2023-09-30T11:36:01;20.40;1.00
3876;DHT22;1953;51.222;6.624;2023-09-30T11:40:58;20.30;1.00
3876;DHT22;1953;51.222;6.624;2023-09-30T11:45:41;20.40;1.00
3876;DHT22;1953;51.222;6.624;2023-09-30T11:50:25;20.50;1.00
3876;DHT22;1953;51.222;6.624;2023-09-30T11:55:08;20.70;1.00
3876;DHT22;1953;51.222;6.624;2023-09-30T11:59:50;20.90;1.00
3876;DHT22;1953;51.222;6.624;2023-09-30T12:04:33;20.90;1.00
3876;DHT22;1953;51.222;6.624;2023-09-30T12:09:18;21.00;1.00
3876;DHT22;1953;51.222;6.624;2023-09-30T12:14:03;21.20;1.00
3876;DHT22;1953;51.222;6.624;2023-09-30T12:19:40;21.60;1.00
3876;DHT22;1953;51.222;6.624;2023-09-30T12:24:23;21.80;1.00
3876;DHT22;1953;51.222;6.624;2023-09-30T12:29:05;22.20;1.00
3876;DHT22;1953;51.222;6.624;2023-09-30T12:33:50;22.50;1.00
3876;DHT22;1953;51.222;6.624;2023-09-30T12:38:34;22.80;1.00
3876;DHT22;1953;51.222;6.624;2023-09-30T12:43:17;23.20;1.00
3876;DHT22;1953;51.222;6.624;2023-09-30T12:47:59;24.70;1.00
3876;DHT22;1953;51.222;6.624;2023-09-30T12:52:42;23.70;1.00
3876;DHT22;1953;51.222;6.624;2023-09-30T12:57:26;23.90;1.00
3876;DHT22;1953;51.222;6.624;2023-09-30T13:02:09;23.60;1.00
3876;DHT22;1953;51.222;6.624;2023-09-30T13:06:52;23.40;1.00
3876;DHT22;1953;51.222;6.624;2023-09-30T13:11:35;23.40;1.00
3876;DHT22;1953;51.222;6.624;2023-09-30T13:16:19;23.60;1.00
3876;DHT22;1953;51.222;6.624;2023-09-30T13:21:01;23.50;1.00
3876;DHT22;1953;51.222;6.624;2023-09-30T13:25:45;23.50;1.00
3876;DHT22;1953;51.222;6.624;2023-09-30T13:30:28;23.50;1.00
3876;DHT22;1953;51.222;6.624;2023-09-30T13:35:11;23.70;1.00
3876;DHT22;1953;51.222;6.624;2023-09-30T13:39:54;23.90;1.00
3876;DHT22;1953;51.222;6.624;2023-09-30T13:44:36;23.60;1.00
3876;DHT22;1953;51.222;6.624;2023-09-30T13:49:19;23.20;1.00
3876;DHT22;1953;51.222;6.624;2023-09-30T13:54:03;23.00;1.00
3876;DHT22;1953;51.222;6.624;2023-09-30T13:58:46;22.80;1.00
3876;DHT22;1953;51.222;6.624;2023-09-30T14:03:30;22.80;1.00
3876;DHT22;1953;51.222;6.624;2023-09-30T14:08:12;22.80;1.00
3876;DHT22;1953;51.222;6.624;2023-09-30T14:12:56;23.00;1.00
3876;DHT22;1953;51.222;6.624;2023-09-30T14:17:39;23.00;1.00
3876;DHT22;1953;51.222;6.624;2023-09-30T14:22:22;22.90;1.00
3876;DHT22;1953;51.222;6.624;2023-09-30T14:27:05;22.70;1.00
3876;DHT22;1953;51.222;6.624;2023-09-30T14:31:48;22.60;1.00
3876;DHT22;1953;51.222;6.624;2023-09-30T14:36:31;22.90;1.00
3876;DHT22;1953;51.222;6.624;2023-09-30T14:41:14;22.90;1.00
3876;DHT22;1953;51.222;6.624;2023-09-30T14:45:57;23.00;1.00
3876;DHT22;1953;51.222;6.624;2023-09-30T14:50:50;23.00;1.00
3876;DHT22;1953;51.222;6.624;2023-09-30T14:55:33;23.20;1.00
3876;DHT22;1953;51.222;6.624;2023-09-30T15:00:16;23.00;1.00
3876;DHT22;1953;51.222;6.624;2023-09-30T15:04:59;23.60;1.00
3876;DHT22;1953;51.222;6.624;2023-09-30T15:09:43;23.60;1.00
3876;DHT22;1953;51.222;6.624;2023-09-30T15:14:25;23.40;1.00
3876;DHT22;1953;51.222;6.624;2023-09-30T15:19:08;23.20;1.00
3876;DHT22;1953;51.222;6.624;2023-09-30T15:23:50;23.20;1.00
3876;DHT22;1953;51.222;6.624;2023-09-30T15:28:34;23.20;1.00
3876;DHT22;1953;51.222;6.624;2023-09-30T15:33:17;23.00;1.00
3876;DHT22;1953;51.222;6.624;2023-09-30T15:37:59;23.00;1.00
3876;DHT22;1953;51.222;6.624;2023-09-30T15:42:42;22.90;1.00
3876;DHT22;1953;51.222;6.624;2023-09-30T15:47:26;22.80;1.00
3876;DHT22;1953;51.222;6.624;2023-09-30T15:52:08;22.80;1.00
3876;DHT22;1953;51.222;6.624;2023-09-30T15:56:51;22.80;1.00
3876;DHT22;1953;51.222;6.624;2023-09-30T16:01:33;22.80;1.00
3876;DHT22;1953;51.222;6.624;2023-09-30T16:06:17;22.70;1.00
3876;DHT22;1953;51.222;6.624;2023-09-30T16:11:00;22.80;1.00
3876;DHT22;1953;51.222;6.624;2023-09-30T16:15:42;22.70;1.00
3876;DHT22;1953;51.222;6.624;2023-09-30T16:20:26;22.50;1.00
3876;DHT22;1953;51.222;6.624;2023-09-30T16:25:10;23.70;1.00
3876;DHT22;1953;51.222;6.624;2023-09-30T16:29:53;22.30;1.00
3876;DHT22;1953;51.222;6.624;2023-09-30T16:34:36;22.10;1.00
3876;DHT22;1953;51.222;6.624;2023-09-30T16:39:18;21.90;1.00
3876;DHT22;1953;51.222;6.624;2023-09-30T16:44:02;21.80;1.00
3876;DHT22;1953;51.222;6.624;2023-09-30T16:48:45;21.80;1.00
3876;DHT22;1953;51.222;6.624;2023-09-30T16:53:27;21.70;1.00
3876;DHT22;1953;51.222;6.624;2023-09-30T16:58:10;21.50;1.00
3876;DHT22;1953;51.222;6.624;2023-09-30T17:02:54;21.40;1.00
3876;DHT22;1953;51.222;6.624;2023-09-30T17:07:36;21.20;1.00
3876;DHT22;1953;51.222;6.624;2023-09-30T17:12:19;21.00;1.00
3876;DHT22;1953;51.222;6.624;2023-09-30T17:17:02;20.80;1.00
3876;DHT22;1953;51.222;6.624;2023-09-30T17:21:46;20.80;1.00
3876;DHT22;1953;51.222;6.624;2023-09-30T17:26:28;20.60;1.00
3876;DHT22;1953;51.222;6.624;2023-09-30T17:31:11;20.40;1.00
3876;DHT22;1953;51.222;6.624;2023-09-30T17:35:58;20.10;1.00
3876;DHT22;1953;51.222;6.624;2023-09-30T17:40:42;20.00;1.00
3876;DHT22;1953;51.222;6.624;2023-09-30T17:45:25;19.80;1.00
3876;DHT22;1953;51.222;6.624;2023-09-30T17:50:11;19.70;1.00
3876;DHT22;1953;51.222;6.624;2023-09-30T17:54:53;19.50;1.00
3876;DHT22;1953;51.222;6.624;2023-09-30T17:59:37;19.50;1.00
3876;DHT22;1953;51.222;6.624;2023-09-30T18:04:19;19.40;1.00
3876;DHT22;1953;51.222;6.624;2023-09-30T18:09:02;19.20;1.00
3876;DHT22;1953;51.222;6.624;2023-09-30T18:13:45;19.10;1.00
3876;DHT22;1953;51.222;6.624;2023-09-30T18:18:30;19.00;1.00
3876;DHT22;1953;51.222;6.624;2023-09-30T18:23:13;18.90;1.00
3876;DHT22;1953;51.222;6.624;2023-09-30T18:27:56;18.80;1.00
3876;DHT22;1953;51.222;6.624;2023-09-30T18:32:39;18.70;1.00
3876;DHT22;1953;51.222;6.624;2023-09-30T18:37:22;18.60;1.00
3876;DHT22;1953;51.222;6.624;2023-09-30T18:42:05;18.50;1.00
3876;DHT22;1953;51.222;6.624;2023-09-30T18:46:48;18.40;1.00
3876;DHT22;1953;51.222;6.624;2023-09-30T18:51:32;18.20;1.00
3876;DHT22;1953;51.222;6.624;2023-09-30T18:56:20;18.20;1.00
3876;DHT22;1953;51.222;6.624;2023-09-30T19:01:03;18.00;1.00
3876;DHT22;1953;51.222;6.624;2023-09-30T19:05:45;17.90;1.00
3876;DHT22;1953;51.222;6.624;2023-09-30T19:10:29;17.80;1.00
3876;DHT22;1953;51.222;6.624;2023-09-30T19:15:13;17.80;1.00
3876;DHT22;1953;51.222;6.624;2023-09-30T19:19:56;17.70;1.00
3876;DHT22;1953;51.222;6.624;2023-09-30T19:24:38;17.60;1.00
3876;DHT22;1953;51.222;6.624;2023-09-30T19:29:21;17.50;1.00
3876;DHT22;1953;51.222;6.624;2023-09-30T19:34:04;17.50;1.00
3876;DHT22;1953;51.222;6.624;2023-09-30T19:38:47;17.30;1.00
3876;DHT22;1953;51.222;6.624;2023-09-30T19:43:29;17.30;1.00
3876;DHT22;1953;51.222;6.624;2023-09-30T19:48:12;17.30;1.00
3876;DHT22;1953;51.222;6.624;2023-09-30T19:52:56;17.20;1.00
3876;DHT22;1953;51.222;6.624;2023-09-30T19:57:38;17.20;1.00
3876;DHT22;1953;51.222;6.624;2023-09-30T20:02:21;17.10;1.00
3876;DHT22;1953;51.222;6.624;2023-09-30T20:07:03;17.10;1.00
3876;DHT22;1953;51.222;6.624;2023-09-30T20:11:47;17.10;1.00
3876;DHT22;1953;51.222;6.624;2023-09-30T20:16:30;16.90;1.00
3876;DHT22;1953;51.222;6.624;2023-09-30T20:21:12;16.70;1.00
3876;DHT22;1953;51.222;6.624;2023-09-30T20:25:55;16.70;1.00
3876;DHT22;1953;51.222;6.624;2023-09-30T20:30:39;16.70;1.00
3876;DHT22;1953;51.222;6.624;2023-09-30T20:35:21;16.70;1.00
3876;DHT22;1953;51.222;6.624;2023-09-30T20:40:05;16.60;1.00
3876;DHT22;1953;51.222;6.624;2023-09-30T20:44:51;16.70;1.00
3876;DHT22;1953;51.222;6.624;2023-09-30T20:49:35;16.50;1.00
3876;DHT22;1953;51.222;6.624;2023-09-30T20:54:18;16.50;1.00
3876;DHT22;1953;51.222;6.624;2023-09-30T20:59:01;16.50;1.00
3876;DHT22;1953;51.222;6.624;2023-09-30T21:03:44;16.50;1.00
3876;DHT22;1953;51.222;6.624;2023-09-30T21:08:27;16.40;1.00
3876;DHT22;1953;51.222;6.624;2023-09-30T21:13:10;16.20;1.00
3876;DHT22;1953;51.222;6.624;2023-09-30T21:17:53;16.20;1.00
3876;DHT22;1953;51.222;6.624;2023-09-30T21:22:35;16.30;1.00
3876;DHT22;1953;51.222;6.624;2023-09-30T21:27:19;16.20;1.00
3876;DHT22;1953;51.222;6.624;2023-09-30T21:32:02;16.20;1.00
3876;DHT22;1953;51.222;6.624;2023-09-30T21:36:44;16.20;1.00
3876;DHT22;1953;51.222;6.624;2023-09-30T21:41:27;16.20;1.00
3876;DHT22;1953;51.222;6.624;2023-09-30T21:46:11;16.10;1.00
3876;DHT22;1953;51.222;6.624;2023-09-30T21:50:54;16.00;1.00
3876;DHT22;1953;51.222;6.624;2023-09-30T21:55:36;16.00;1.00
3876;DHT22;1953;51.222;6.624;2023-09-30T22:00:19;15.80;1.00
3876;DHT22;1953;51.222;6.624;2023-09-30T22:05:10;15.70;1.00
3876;DHT22;1953;51.222;6.624;2023-09-30T22:09:52;15.60;1.00
3876;DHT22;1953;51.222;6.624;2023-09-30T22:14:35;15.60;1.00
3876;DHT22;1953;51.222;6.624;2023-09-30T22:19:17;15.70;1.00
3876;DHT22;1953;51.222;6.624;2023-09-30T22:24:01;15.60;1.00
3876;DHT22;1953;51.222;6.624;2023-09-30T22:28:44;15.50;1.00
3876;DHT22;1953;51.222;6.624;2023-09-30T22:33:27;15.50;1.00
3876;DHT22;1953;51.222;6.624;2023-09-30T22:38:09;15.50;1.00
3876;DHT22;1953;51.222;6.624;2023-09-30T22:42:54;15.50;1.00
3876;DHT22;1953;51.222;6.624;2023-09-30T22:47:43;15.30;1.00
3876;DHT22;1953;51.222;6.624;2023-09-30T22:52:26;15.30;1.00
3876;DHT22;1953;51.222;6.624;2023-09-30T22:57:08;15.20;1.00
3876;DHT22;1953;51.222;6.624;2023-09-30T23:01:54;15.00;1.00
3876;DHT22;1953;51.222;6.624;2023-09-30T23:06:36;15.00;1.00
3876;DHT22;1953;51.222;6.624;2023-09-30T23:11:19;14.90;1.00
3876;DHT22;1953;51.222;6.624;2023-09-30T23:16:02;14.90;1.00
3876;DHT22;1953;51.222;6.624;2023-09-30T23:20:46;14.90;1.00
3876;DHT22;1953;51.222;6.624;2023-09-30T23:25:28;14.90;1.00
3876;DHT22;1953;51.222;6.624;2023-09-30T23:30:15;14.90;1.00
3876;DHT22;1953;51.222;6.624;2023-09-30T23:34:58;14.90;1.00
3876;DHT22;1953;51.222;6.624;2023-09-30T23:39:42;14.90;1.00
3876;DHT22;1953;51.222;6.624;2023-09-30T23:44:25;14.70;1.00
3876;DHT22;1953;51.222;6.624;2023-09-30T23:49:08;14.70;1.00
3876;DHT22;1953;51.222;6.624;2023-09-30T23:53:51;14.60;1.00
3876;DHT22;1953;51.222;6.624;2023-09-30T23:58:35;14.70;1.00
